Time;durP1;ratioP1;P1;durP2;ratioP2;P2;SDS_P1;SDS_P2;PMS_P1;PMS_P2;Temp;Humidity;BMP_temperature;BMP_pressure;BME280_temperature;BME280_humidity;BME280_pressure;Samples;Min_cycle;Max_cycle;Signal;HPM_P1;HPM_P2
2022/03/25 00:02:17;;;;;;;30.47;19.80;;;9.50;56.80;;;;;;5058668;28;20448;-44
2022/03/25 00:04:45;;;;;;;27.10;18.67;;;9.50;56.90;;;;;;5057671;28;20479;-44
2022/03/25 00:07:11;;;;;;;32.53;20.07;;;9.40;56.90;;;;;;5055486;28;20447;-44
2022/03/25 00:09:38;;;;;;;33.17;19.40;;;9.40;56.80;;;;;;5057140;28;20523;-44
2022/03/25 00:12:06;;;;;;;33.83;20.57;;;9.40;56.90;;;;;;5050617;28;20959;-44
2022/03/25 00:14:34;;;;;;;32.27;20.20;;;9.30;56.60;;;;;;5065029;28;20525;-44
2022/03/25 00:17:01;;;;;;;29.43;19.33;;;9.30;56.40;;;;;;5061606;28;20459;-44
2022/03/25 00:19:27;;;;;;;30.23;20.87;;;9.30;56.50;;;;;;5060433;28;20482;-44
2022/03/25 00:21:54;;;;;;;29.07;19.27;;;9.20;57.00;;;;;;5058411;28;20829;-44
2022/03/25 00:24:23;;;;;;;37.33;20.60;;;9.20;57.10;;;;;;5054660;28;21134;-43
2022/03/25 00:26:50;;;;;;;32.83;20.90;;;9.10;57.20;;;;;;5058280;28;20450;-43
2022/03/25 00:29:16;;;;;;;37.33;21.77;;;9.10;57.30;;;;;;5058726;28;20492;-44
2022/03/25 00:31:43;;;;;;;28.77;19.40;;;9.00;57.30;;;;;;5060136;28;20482;-44
2022/03/25 00:34:10;;;;;;;34.77;23.17;;;9.00;57.50;;;;;;5061908;28;20971;-45
2022/03/25 00:36:37;;;;;;;34.40;21.87;;;9.00;57.20;;;;;;5061407;28;20491;-44
2022/03/25 00:39:04;;;;;;;38.00;21.47;;;8.90;57.00;;;;;;5060587;28;20589;-44
2022/03/25 00:41:36;;;;;;;32.17;21.07;;;8.90;57.20;;;;;;5045933;28;20494;-44
2022/03/25 00:44:07;;;;;;;31.40;20.40;;;8.80;57.20;;;;;;5061966;28;20871;-44
2022/03/25 00:46:34;;;;;;;34.13;20.87;;;8.80;57.60;;;;;;5060414;28;20490;-44
2022/03/25 00:49:01;;;;;;;37.23;21.90;;;8.80;58.10;;;;;;5062614;28;21017;-44
2022/03/25 00:51:28;;;;;;;40.17;22.20;;;8.70;58.40;;;;;;5060073;28;20463;-44
2022/03/25 00:53:55;;;;;;;32.50;23.10;;;8.70;58.50;;;;;;5060486;28;20524;-44
2022/03/25 00:56:24;;;;;;;39.03;22.43;;;8.70;58.60;;;;;;5063533;28;20481;-44
2022/03/25 00:58:51;;;;;;;40.13;24.73;;;8.60;58.90;;;;;;5062571;28;20531;-44
2022/03/25 01:01:18;;;;;;;40.73;23.17;;;8.60;59.10;;;;;;5056930;28;20513;-44
2022/03/25 01:03:45;;;;;;;41.20;22.20;;;8.60;59.00;;;;;;5062668;28;20539;-44
2022/03/25 01:06:12;;;;;;;39.43;23.17;;;8.60;59.20;;;;;;5061495;28;20456;-44
2022/03/25 01:08:39;;;;;;;34.10;20.23;;;8.50;59.30;;;;;;5062529;28;20857;-44
2022/03/25 01:11:06;;;;;;;36.43;21.83;;;8.50;59.40;;;;;;5061112;28;20882;-44
2022/03/25 01:13:33;;;;;;;34.00;23.57;;;8.50;59.90;;;;;;5059363;28;20455;-43
2022/03/25 01:16:02;;;;;;;33.50;21.93;;;8.50;59.70;;;;;;5061574;28;20943;-43
2022/03/25 01:18:29;;;;;;;37.20;21.03;;;8.50;59.80;;;;;;5060959;28;20558;-44
2022/03/25 01:20:57;;;;;;;34.57;21.70;;;8.50;59.70;;;;;;5061744;28;20521;-44
2022/03/25 01:23:25;;;;;;;34.70;21.40;;;8.40;59.80;;;;;;5059477;28;20574;-44
2022/03/25 01:25:52;;;;;;;33.87;21.17;;;8.40;59.80;;;;;;5056602;28;20453;-44
2022/03/25 01:28:19;;;;;;;34.43;19.73;;;8.30;59.80;;;;;;5058826;28;20759;-44
2022/03/25 01:30:46;;;;;;;39.03;22.00;;;8.30;59.90;;;;;;5060611;28;20486;-43
2022/03/25 01:33:14;;;;;;;41.37;23.27;;;8.30;60.40;;;;;;5048959;28;20514;-45
2022/03/25 01:35:41;;;;;;;33.07;22.27;;;8.20;60.60;;;;;;5047075;28;20462;-44
2022/03/25 01:38:08;;;;;;;34.33;21.93;;;8.20;60.70;;;;;;5060730;28;20463;-44
2022/03/25 01:40:35;;;;;;;33.40;20.17;;;8.20;60.80;;;;;;5046083;28;20482;-44
2022/03/25 01:43:05;;;;;;;30.63;20.23;;;8.20;60.90;;;;;;5061692;28;20946;-44
2022/03/25 01:45:38;;;;;;;32.83;20.77;;;8.10;60.80;;;;;;5059721;28;20455;-44
2022/03/25 01:48:10;;;;;;;32.10;20.10;;;8.10;61.00;;;;;;5042957;28;21062;-44
2022/03/25 01:50:39;;;;;;;32.27;20.13;;;8.10;61.00;;;;;;5058640;28;20513;-44
2022/03/25 01:53:17;;;;;;;33.30;21.83;;;8.10;60.90;;;;;;5062781;28;20810;-44
2022/03/25 01:55:49;;;;;;;31.27;19.73;;;8.10;61.50;;;;;;5041720;28;20506;-44
2022/03/25 01:58:16;;;;;;;37.20;21.73;;;8.00;61.40;;;;;;5058006;28;20552;-44
2022/03/25 02:00:43;;;;;;;35.00;22.07;;;8.00;61.30;;;;;;5057104;28;20569;-44
2022/03/25 02:03:10;;;;;;;42.90;23.73;;;8.00;61.20;;;;;;5059610;28;21157;-44
2022/03/25 02:05:37;;;;;;;36.67;23.23;;;8.00;61.30;;;;;;5039874;28;20532;-44
2022/03/25 02:08:04;;;;;;;37.47;21.33;;;7.90;61.30;;;;;;5059613;28;20885;-44
2022/03/25 02:10:31;;;;;;;40.13;23.10;;;7.90;61.20;;;;;;5055083;28;20475;-44
2022/03/25 02:12:58;;;;;;;39.80;23.00;;;7.90;61.20;;;;;;5045340;28;20893;-44
2022/03/25 02:15:52;;;;;;;33.67;21.50;;;7.80;61.20;;;;;;5053134;28;20544;-44
2022/03/25 02:18:19;;;;;;;34.13;20.57;;;7.80;61.20;;;;;;5058932;28;20889;-44
2022/03/25 02:20:48;;;;;;;37.13;21.37;;;7.70;61.20;;;;;;5059591;28;20499;-44
2022/03/25 02:23:15;;;;;;;36.47;23.13;;;7.80;61.50;;;;;;5043314;28;20533;-44
2022/03/25 02:25:43;;;;;;;36.93;21.53;;;7.70;61.40;;;;;;5040031;28;20534;-44
2022/03/25 02:28:10;;;;;;;30.63;19.80;;;7.70;61.30;;;;;;5060511;28;20540;-44
2022/03/25 02:30:38;;;;;;;33.00;21.30;;;7.60;61.30;;;;;;5043442;28;20464;-44
2022/03/25 02:33:07;;;;;;;33.47;20.97;;;7.60;61.40;;;;;;5057678;28;20798;-44
2022/03/25 02:35:44;;;;;;;34.57;21.80;;;7.50;61.60;;;;;;5060413;28;20459;-44
2022/03/25 02:38:13;;;;;;;38.40;21.20;;;7.50;61.70;;;;;;5060478;28;20524;-44
2022/03/25 02:40:41;;;;;;;36.97;21.00;;;7.50;61.70;;;;;;5064320;28;20497;-44
2022/03/25 02:43:10;;;;;;;34.93;20.83;;;7.40;61.80;;;;;;5036946;28;20810;-43
2022/03/25 02:45:38;;;;;;;39.83;23.43;;;7.40;62.10;;;;;;5059532;28;20463;-43
2022/03/25 02:48:06;;;;;;;32.77;20.40;;;7.40;62.50;;;;;;5062310;28;20496;-43
2022/03/25 02:50:33;;;;;;;41.20;20.87;;;7.30;62.30;;;;;;5054060;28;20477;-43
2022/03/25 02:53:01;;;;;;;31.10;21.30;;;7.30;62.40;;;;;;5060962;28;20538;-44
2022/03/25 02:55:28;;;;;;;32.90;19.90;;;7.30;62.50;;;;;;5047731;28;20446;-44
2022/03/25 02:57:55;;;;;;;36.13;19.40;;;7.20;62.60;;;;;;5046278;28;20462;-43
2022/03/25 03:00:25;;;;;;;33.77;21.33;;;7.20;62.60;;;;;;5047461;28;20483;-44
2022/03/25 03:02:52;;;;;;;34.10;22.27;;;7.20;62.70;;;;;;5058961;28;20560;-44
2022/03/25 03:05:21;;;;;;;32.30;20.37;;;7.20;62.60;;;;;;5057348;28;20812;-44
2022/03/25 03:07:48;;;;;;;35.60;22.40;;;7.10;62.80;;;;;;5057776;28;20467;-44
2022/03/25 03:10:15;;;;;;;33.73;21.10;;;7.10;63.10;;;;;;5029145;28;21285;-44
2022/03/25 03:12:42;;;;;;;30.90;21.43;;;7.10;63.50;;;;;;5054912;28;20463;-44
2022/03/25 03:15:11;;;;;;;37.20;21.60;;;7.10;63.50;;;;;;5059887;28;20465;-44
2022/03/25 03:17:38;;;;;;;33.90;20.33;;;7.10;63.60;;;;;;5058587;28;20813;-44
2022/03/25 03:20:06;;;;;;;37.67;20.30;;;7.00;63.70;;;;;;5062184;28;21023;-44
2022/03/25 03:22:34;;;;;;;35.30;20.90;;;7.00;63.60;;;;;;5037373;28;20458;-44
2022/03/25 03:25:01;;;;;;;30.87;20.33;;;7.00;63.60;;;;;;5059716;28;20463;-44
2022/03/25 03:27:28;;;;;;;32.60;20.30;;;7.00;63.90;;;;;;5056319;28;20466;-44
2022/03/25 03:29:55;;;;;;;28.33;19.80;;;6.90;63.80;;;;;;5060526;28;20961;-44
2022/03/25 03:32:25;;;;;;;39.03;21.70;;;6.90;63.90;;;;;;5058464;28;20861;-43
2022/03/25 03:34:53;;;;;;;36.00;22.77;;;6.90;63.80;;;;;;5057702;28;20549;-44
2022/03/25 03:37:21;;;;;;;38.07;20.23;;;6.90;64.00;;;;;;5066628;28;20959;-44
2022/03/25 03:39:49;;;;;;;33.53;21.27;;;6.90;64.20;;;;;;5062991;28;20466;-43
2022/03/25 03:42:15;;;;;;;38.33;21.43;;;6.90;64.10;;;;;;5044386;28;20473;-43
2022/03/25 03:44:42;;;;;;;34.10;20.90;;;6.90;64.30;;;;;;5065228;28;20463;-43
2022/03/25 03:47:10;;;;;;;37.87;21.90;;;6.90;64.40;;;;;;5061971;28;20487;-43
2022/03/25 03:49:38;;;;;;;39.30;22.10;;;6.90;64.60;;;;;;5066327;28;21038;-43
2022/03/25 03:52:05;;;;;;;33.10;19.97;;;6.80;64.60;;;;;;5068662;28;20557;-43
2022/03/25 03:54:32;;;;;;;28.77;21.27;;;6.90;64.80;;;;;;5070471;28;20505;-43
2022/03/25 03:56:59;;;;;;;34.53;22.03;;;6.90;65.00;;;;;;5067196;28;20462;-44
2022/03/25 03:59:26;;;;;;;33.73;21.97;;;6.90;65.00;;;;;;5054164;28;20561;-44
2022/03/25 04:01:53;;;;;;;30.90;21.23;;;6.90;64.90;;;;;;5063900;28;20482;-44
2022/03/25 04:04:19;;;;;;;35.97;23.50;;;6.80;64.80;;;;;;5064434;28;20469;-43
2022/03/25 04:06:46;;;;;;;35.03;21.20;;;6.80;64.70;;;;;;5063754;28;20469;-44
2022/03/25 04:09:13;;;;;;;36.07;22.17;;;6.80;65.40;;;;;;5064443;28;20458;-44
2022/03/25 04:11:39;;;;;;;32.40;22.90;;;6.80;65.30;;;;;;5065861;28;20467;-44
2022/03/25 04:14:06;;;;;;;36.00;21.57;;;6.70;65.20;;;;;;5066535;28;20468;-43
2022/03/25 04:16:37;;;;;;;40.17;22.00;;;6.70;65.10;;;;;;5063646;28;20465;-43
2022/03/25 04:19:04;;;;;;;37.37;21.97;;;6.60;65.00;;;;;;5071250;28;20457;-44
2022/03/25 04:21:31;;;;;;;37.00;22.20;;;6.60;65.00;;;;;;5065727;28;20512;-43
2022/03/25 04:23:58;;;;;;;33.70;22.33;;;6.50;64.90;;;;;;5046409;28;20465;-44
2022/03/25 04:26:25;;;;;;;32.30;20.53;;;6.50;65.00;;;;;;5069927;28;20456;-44
2022/03/25 04:28:51;;;;;;;36.20;22.70;;;6.50;65.10;;;;;;5069932;28;21186;-43
2022/03/25 04:31:18;;;;;;;32.47;22.80;;;6.40;65.40;;;;;;5053200;28;20482;-44
2022/03/25 04:33:45;;;;;;;31.60;20.73;;;6.40;65.50;;;;;;5062381;28;20474;-43
2022/03/25 04:36:12;;;;;;;32.83;20.50;;;6.40;65.60;;;;;;5029073;28;20460;-44
2022/03/25 04:38:38;;;;;;;37.30;21.00;;;6.30;65.80;;;;;;5065449;28;20481;-44
2022/03/25 04:41:06;;;;;;;33.87;20.27;;;6.30;65.90;;;;;;5066897;28;20500;-44
2022/03/25 04:43:33;;;;;;;37.03;21.20;;;6.30;66.00;;;;;;5062997;28;20457;-44
2022/03/25 04:46:00;;;;;;;40.27;21.70;;;6.30;65.90;;;;;;5064629;28;20470;-44
2022/03/25 04:48:26;;;;;;;38.40;21.03;;;6.30;65.80;;;;;;5065771;28;20544;-43
2022/03/25 04:50:53;;;;;;;34.10;21.03;;;6.30;65.80;;;;;;5032153;28;20846;-43
2022/03/25 04:53:20;;;;;;;33.27;21.70;;;6.20;65.80;;;;;;5064679;28;20453;-44
2022/03/25 04:55:47;;;;;;;34.20;21.40;;;6.20;65.80;;;;;;5060116;28;20465;-44
2022/03/25 04:58:14;;;;;;;37.43;22.20;;;6.20;65.90;;;;;;5064425;28;20983;-44
2022/03/25 05:00:42;;;;;;;32.40;21.13;;;6.20;66.00;;;;;;5062659;28;20487;-44
2022/03/25 05:03:09;;;;;;;38.93;22.57;;;6.10;66.00;;;;;;5053457;28;20966;-44
2022/03/25 05:05:37;;;;;;;31.80;20.80;;;6.10;66.10;;;;;;5064780;28;20449;-44
2022/03/25 05:08:04;;;;;;;40.73;23.53;;;6.10;66.30;;;;;;5063556;28;20446;-44
2022/03/25 05:10:31;;;;;;;43.10;24.90;;;6.10;66.40;;;;;;5063992;28;20450;-44
2022/03/25 05:13:18;;;;;;;41.77;23.07;;;6.10;66.60;;;;;;5064114;28;20437;-44
2022/03/25 05:15:45;;;;;;;38.37;22.33;;;6.10;66.90;;;;;;5067677;28;20994;-44
2022/03/25 05:18:11;;;;;;;32.97;21.10;;;6.10;67.10;;;;;;5068478;28;20521;-44
2022/03/25 05:20:38;;;;;;;32.70;22.10;;;6.10;67.10;;;;;;5066981;28;20454;-44
2022/03/25 05:23:05;;;;;;;39.57;23.07;;;6.10;67.10;;;;;;5064521;28;20545;-44
2022/03/25 05:25:32;;;;;;;38.90;23.43;;;6.00;67.00;;;;;;5062146;28;20461;-44
2022/03/25 05:27:59;;;;;;;41.00;22.67;;;6.00;67.10;;;;;;5063664;28;20464;-44
2022/03/25 05:30:35;;;;;;;40.20;24.20;;;6.00;67.20;;;;;;5063857;28;20468;-44
2022/03/25 05:33:02;;;;;;;35.87;19.03;;;6.00;67.20;;;;;;5065163;28;20466;-44
2022/03/25 05:35:31;;;;;;;33.23;20.40;;;6.00;67.30;;;;;;5064898;28;20488;-44
2022/03/25 05:37:58;;;;;;;31.30;21.10;;;6.00;67.30;;;;;;5052599;28;20454;-44
2022/03/25 05:40:26;;;;;;;37.47;23.47;;;6.00;67.40;;;;;;5060998;28;20462;-44
2022/03/25 05:42:54;;;;;;;40.53;23.97;;;6.00;67.40;;;;;;5058808;28;20458;-44
2022/03/25 05:45:22;;;;;;;32.80;20.27;;;6.00;67.30;;;;;;5044312;28;20462;-44
2022/03/25 05:47:49;;;;;;;36.17;22.57;;;6.00;67.50;;;;;;5062907;28;20565;-44
2022/03/25 05:50:16;;;;;;;39.83;22.73;;;6.00;67.50;;;;;;5059980;28;20470;-44
2022/03/25 05:52:44;;;;;;;37.50;22.20;;;6.00;67.80;;;;;;5067467;28;20817;-44
2022/03/25 05:55:16;;;;;;;34.37;21.47;;;6.00;67.90;;;;;;5063341;28;20457;-44
2022/03/25 05:57:44;;;;;;;36.27;21.37;;;6.00;68.00;;;;;;5063583;28;20462;-43
2022/03/25 06:00:13;;;;;;;32.20;19.90;;;6.00;68.00;;;;;;5063473;28;20457;-43
2022/03/25 06:02:42;;;;;;;36.63;23.77;;;6.10;67.90;;;;;;5046081;28;21011;-44
2022/03/25 06:05:10;;;;;;;30.37;19.63;;;6.10;68.10;;;;;;5065463;28;20512;-44
2022/03/25 06:07:39;;;;;;;39.97;23.80;;;6.10;68.40;;;;;;5066623;28;20496;-44
2022/03/25 06:10:09;;;;;;;39.90;24.93;;;6.10;68.70;;;;;;5064893;28;20484;-43
2022/03/25 06:12:38;;;;;;;36.80;22.63;;;6.20;68.60;;;;;;5046613;28;20498;-44
2022/03/25 06:15:05;;;;;;;34.47;22.23;;;6.20;68.50;;;;;;5062128;28;20943;-43
2022/03/25 06:17:32;;;;;;;38.10;22.43;;;6.20;68.50;;;;;;5066569;28;20454;-44
2022/03/25 06:19:59;;;;;;;35.17;23.40;;;6.30;68.40;;;;;;5065864;28;20457;-43
2022/03/25 06:22:27;;;;;;;37.10;22.30;;;6.30;68.40;;;;;;5061950;28;20486;-43
2022/03/25 06:24:54;;;;;;;37.50;21.30;;;6.30;68.60;;;;;;5058532;28;20561;-44
2022/03/25 06:27:21;;;;;;;39.77;21.73;;;6.40;68.60;;;;;;5062369;28;20457;-43
2022/03/25 06:29:48;;;;;;;39.77;21.67;;;6.40;68.70;;;;;;5061503;28;20460;-44
2022/03/25 06:32:15;;;;;;;36.90;23.00;;;6.40;68.70;;;;;;5061303;28;20465;-44
2022/03/25 06:34:42;;;;;;;39.80;22.87;;;6.50;68.70;;;;;;5064627;28;20454;-44
2022/03/25 06:37:09;;;;;;;40.80;23.23;;;6.50;68.80;;;;;;5064211;28;20592;-44
2022/03/25 06:39:35;;;;;;;36.30;22.23;;;6.50;68.80;;;;;;5063697;28;20820;-44
2022/03/25 06:42:02;;;;;;;41.80;25.57;;;6.60;68.80;;;;;;5062611;28;20839;-44
2022/03/25 06:44:29;;;;;;;41.30;24.00;;;6.70;68.80;;;;;;5063573;28;20499;-44
2022/03/25 06:46:56;;;;;;;40.83;23.50;;;6.70;68.70;;;;;;5064500;28;20471;-44
2022/03/25 06:49:23;;;;;;;34.43;22.90;;;6.80;68.60;;;;;;5063534;28;20823;-44
2022/03/25 06:51:50;;;;;;;41.63;26.50;;;6.90;68.70;;;;;;5056578;28;20456;-44
2022/03/25 06:54:17;;;;;;;38.90;24.33;;;6.90;68.60;;;;;;5060481;28;20454;-44
2022/03/25 06:56:44;;;;;;;47.23;30.17;;;7.00;68.70;;;;;;5063692;28;20461;-44
2022/03/25 06:59:11;;;;;;;45.63;27.23;;;7.10;68.60;;;;;;5059163;28;20463;-43
2022/03/25 07:01:39;;;;;;;44.87;28.23;;;7.10;68.50;;;;;;5061625;28;20478;-43
2022/03/25 07:04:07;;;;;;;39.50;25.53;;;7.20;68.30;;;;;;5058342;28;20459;-44
2022/03/25 07:06:34;;;;;;;45.67;27.63;;;7.20;68.10;;;;;;5058451;28;20459;-44
2022/03/25 07:09:02;;;;;;;42.17;25.70;;;7.40;67.90;;;;;;5065251;28;20450;-43
2022/03/25 07:11:34;;;;;;;41.27;25.40;;;7.50;67.10;;;;;;5062896;28;20533;-44
2022/03/25 07:14:01;;;;;;;42.37;26.83;;;7.60;66.50;;;;;;5026437;28;20822;-44
2022/03/25 07:16:28;;;;;;;44.30;26.60;;;7.70;66.60;;;;;;5057930;28;20459;-44
2022/03/25 07:18:55;;;;;;;39.40;27.03;;;7.80;66.30;;;;;;5046774;28;20477;-43
2022/03/25 07:21:22;;;;;;;48.17;25.97;;;7.90;65.90;;;;;;5061617;28;20485;-44
2022/03/25 07:23:49;;;;;;;40.33;25.13;;;8.00;66.00;;;;;;5059839;28;20472;-44
2022/03/25 07:26:17;;;;;;;43.10;26.07;;;8.00;65.80;;;;;;5064848;28;20454;-44
2022/03/25 07:28:44;;;;;;;40.20;25.57;;;8.20;65.60;;;;;;5056144;28;20461;-44
2022/03/25 07:31:11;;;;;;;45.60;24.57;;;8.20;65.30;;;;;;5060838;28;20452;-43
2022/03/25 07:33:38;;;;;;;42.53;24.60;;;8.30;64.90;;;;;;5063950;28;20553;-43
2022/03/25 07:36:05;;;;;;;38.33;24.60;;;8.50;64.50;;;;;;5062191;28;20556;-43
2022/03/25 07:38:31;;;;;;;39.00;24.60;;;8.60;64.20;;;;;;5057500;28;20451;-44
2022/03/25 07:40:58;;;;;;;49.73;26.80;;;8.70;63.80;;;;;;5059334;28;20521;-44
2022/03/25 07:43:28;;;;;;;37.80;23.30;;;8.90;63.30;;;;;;5063418;28;20490;-44
2022/03/25 07:45:54;;;;;;;38.70;23.60;;;9.00;62.40;;;;;;5059077;28;20543;-44
2022/03/25 07:48:21;;;;;;;36.87;23.23;;;9.20;61.50;;;;;;5061350;28;21117;-44
2022/03/25 07:50:48;;;;;;;36.87;24.20;;;9.30;60.60;;;;;;5048153;28;20459;-44
2022/03/25 07:53:15;;;;;;;22.50;14.27;;;9.50;59.80;;;;;;5064766;28;20459;-44
2022/03/25 07:55:44;;;;;;;34.57;22.37;;;9.70;59.30;;;;;;5062680;28;20459;-44
2022/03/25 07:58:11;;;;;;;41.17;26.67;;;9.90;59.00;;;;;;5064502;28;20545;-45
2022/03/25 08:00:39;;;;;;;44.50;25.60;;;10.10;59.10;;;;;;5064357;28;20460;-46
2022/03/25 08:03:07;;;;;;;42.53;25.40;;;10.30;58.60;;;;;;5056601;28;20495;-45
2022/03/25 08:05:35;;;;;;;41.30;26.20;;;10.60;56.10;;;;;;5062965;28;20455;-44
2022/03/25 08:08:02;;;;;;;44.50;26.13;;;10.90;54.80;;;;;;5059965;28;20476;-44
2022/03/25 08:10:30;;;;;;;39.87;25.60;;;11.10;54.10;;;;;;5067434;28;20489;-44
2022/03/25 08:12:58;;;;;;;39.33;24.90;;;11.30;53.90;;;;;;5064108;28;20965;-44
2022/03/25 08:15:32;;;;;;;43.90;26.90;;;11.50;52.70;;;;;;5061849;28;20459;-44
2022/03/25 08:18:05;;;;;;;38.63;24.67;;;11.70;52.60;;;;;;5067122;28;21236;-44
2022/03/25 08:20:39;;;;;;;42.97;26.33;;;11.80;52.50;;;;;;5063070;28;20469;-44
2022/03/25 08:27:48;;;;;;;37.57;25.73;;;12.00;51.90;;;;;;5062184;28;20867;-44
2022/03/25 08:28:48;;;;;;;43.50;26.73;;;12.50;50.70;;;;;;5059663;28;20871;-44
2022/03/25 08:31:34;;;;;;;39.67;25.70;;;12.70;51.10;;;;;;5064571;28;20989;-44
2022/03/25 08:34:03;;;;;;;43.87;26.90;;;12.90;50.80;;;;;;5054416;28;20935;-44
2022/03/25 08:36:30;;;;;;;43.40;27.40;;;13.10;50.00;;;;;;5068275;28;20819;-44
2022/03/25 08:38:56;;;;;;;38.07;25.90;;;13.40;48.80;;;;;;5067308;28;20471;-45
2022/03/25 08:41:23;;;;;;;43.87;26.77;;;13.60;48.60;;;;;;5064893;28;20490;-45
2022/03/25 08:43:50;;;;;;;43.63;26.60;;;13.80;48.60;;;;;;5050470;28;20441;-45
2022/03/25 08:46:20;;;;;;;45.47;25.73;;;14.00;47.80;;;;;;5067951;28;20471;-44
2022/03/25 08:48:47;;;;;;;43.67;26.70;;;14.20;47.30;;;;;;5046628;28;20479;-44
2022/03/25 08:51:14;;;;;;;45.50;27.87;;;14.40;47.10;;;;;;5066598;28;20550;-44
2022/03/25 08:53:41;;;;;;;40.30;26.77;;;14.60;47.10;;;;;;5065959;28;20464;-44
2022/03/25 08:56:08;;;;;;;40.10;26.57;;;14.90;46.20;;;;;;5054337;28;20449;-44
2022/03/25 08:58:35;;;;;;;41.47;28.00;;;15.00;45.80;;;;;;5049773;28;20543;-44
2022/03/25 09:01:02;;;;;;;41.40;26.73;;;15.30;46.40;;;;;;5065129;28;20474;-44
2022/03/25 09:03:29;;;;;;;42.17;28.50;;;15.60;46.00;;;;;;5053195;28;20508;-44
2022/03/25 09:05:56;;;;;;;48.90;29.57;;;15.80;45.50;;;;;;5059622;28;20456;-45
2022/03/25 09:08:23;;;;;;;51.13;29.40;;;16.00;44.60;;;;;;5065263;28;20456;-44
2022/03/25 09:10:53;;;;;;;43.53;27.70;;;16.10;44.30;;;;;;5064893;28;20459;-45
2022/03/25 09:13:20;;;;;;;40.70;28.27;;;16.30;44.60;;;;;;5061613;28;20451;-45
2022/03/25 09:15:47;;;;;;;43.83;28.40;;;16.50;44.20;;;;;;5044478;28;20491;-45
2022/03/25 09:18:14;;;;;;;45.53;28.00;;;16.70;43.60;;;;;;5062403;28;20466;-45
2022/03/25 09:20:41;;;;;;;42.70;28.33;;;16.90;43.00;;;;;;5061917;28;20511;-44
2022/03/25 09:23:08;;;;;;;40.87;29.20;;;17.00;43.50;;;;;;5066436;28;20485;-44
2022/03/25 09:25:35;;;;;;;44.10;30.27;;;17.20;42.70;;;;;;5047888;28;20522;-45
2022/03/25 09:28:02;;;;;;;46.57;29.20;;;17.40;41.90;;;;;;5050964;28;20487;-44
2022/03/25 09:30:29;;;;;;;44.43;28.70;;;17.50;41.80;;;;;;5065253;28;20468;-44
2022/03/25 09:33:06;;;;;;;41.40;28.80;;;17.60;41.60;;;;;;5062206;28;20465;-44
2022/03/25 09:35:36;;;;;;;43.97;27.17;;;17.60;40.60;;;;;;5064806;28;20528;-44
2022/03/25 09:38:03;;;;;;;40.67;27.90;;;17.70;41.20;;;;;;5050865;28;20497;-45
2022/03/25 09:40:30;;;;;;;40.10;27.07;;;17.80;42.30;;;;;;5061885;28;20562;-45
2022/03/25 09:42:57;;;;;;;42.20;28.10;;;17.90;42.20;;;;;;5064480;28;20492;-45
2022/03/25 09:45:25;;;;;;;41.87;28.43;;;18.10;42.10;;;;;;5060476;28;20534;-45
2022/03/25 09:47:55;;;;;;;44.27;29.50;;;18.30;41.50;;;;;;5058744;28;20531;-45
2022/03/25 09:50:24;;;;;;;44.20;29.93;;;18.40;40.80;;;;;;5060875;28;20521;-45
2022/03/25 09:52:53;;;;;;;43.00;28.83;;;18.60;41.00;;;;;;5062631;28;20459;-45
2022/03/25 09:55:41;;;;;;;43.60;27.40;;;18.80;41.30;;;;;;5060973;28;20459;-45
2022/03/25 09:58:11;;;;;;;44.37;29.60;;;19.00;40.70;;;;;;5066402;28;20544;-45
2022/03/25 10:00:38;;;;;;;48.90;29.70;;;19.00;39.70;;;;;;5061314;28;20737;-45
2022/03/25 10:03:05;;;;;;;41.70;28.27;;;19.20;39.70;;;;;;5059858;28;20493;-44
2022/03/25 10:05:34;;;;;;;37.70;27.97;;;19.30;40.30;;;;;;5063740;28;20459;-45
2022/03/25 10:08:00;;;;;;;48.50;29.47;;;19.40;40.40;;;;;;5063224;28;20453;-44
2022/03/25 10:10:29;;;;;;;43.57;28.17;;;19.50;39.30;;;;;;5060846;28;20476;-45
2022/03/25 10:13:03;;;;;;;46.87;30.30;;;19.60;39.00;;;;;;5043950;28;20469;-45
2022/03/25 10:15:33;;;;;;;44.20;29.33;;;19.60;39.00;;;;;;5063360;28;20906;-45
2022/03/25 10:18:07;;;;;;;44.93;29.60;;;19.60;39.20;;;;;;5052505;28;20454;-44
2022/03/25 10:20:40;;;;;;;39.33;28.67;;;19.80;39.00;;;;;;5062517;28;20507;-44
2022/03/25 10:23:11;;;;;;;44.50;29.90;;;20.00;38.90;;;;;;5064930;28;20500;-44
2022/03/25 10:25:55;;;;;;;43.77;29.40;;;20.30;38.60;;;;;;5069547;28;20473;-45
2022/03/25 10:28:40;;;;;;;40.50;28.33;;;20.60;37.60;;;;;;5064302;28;20969;-44
2022/03/25 10:31:16;;;;;;;40.13;27.60;;;21.00;36.00;;;;;;5063413;28;20504;-45
2022/03/25 10:33:42;;;;;;;41.23;27.50;;;21.10;34.30;;;;;;5061826;28;20954;-44
2022/03/25 10:36:11;;;;;;;40.33;29.10;;;21.30;34.50;;;;;;5063951;28;20474;-45
2022/03/25 10:38:50;;;;;;;37.43;28.43;;;21.40;34.40;;;;;;5052020;28;20959;-45
2022/03/25 10:41:23;;;;;;;42.93;30.00;;;21.70;33.70;;;;;;5046575;28;20461;-45
2022/03/25 10:43:59;;;;;;;40.57;28.87;;;22.10;34.40;;;;;;5036729;28;20499;-45
2022/03/25 10:46:54;;;;;;;45.80;28.77;;;22.40;33.20;;;;;;5065196;28;20500;-45
2022/03/25 10:49:20;;;;;;;38.57;26.83;;;22.70;32.60;;;;;;5056741;28;20470;-45
2022/03/25 10:51:59;;;;;;;38.50;28.23;;;22.80;31.70;;;;;;5061688;28;20983;-45
2022/03/25 10:54:28;;;;;;;41.30;27.63;;;23.00;31.50;;;;;;5059511;28;20450;-45
2022/03/25 10:56:57;;;;;;;38.10;27.70;;;23.10;30.80;;;;;;5063820;28;20462;-45
2022/03/25 10:59:28;;;;;;;41.93;28.07;;;23.20;30.70;;;;;;5064379;28;20576;-46
2022/03/25 11:02:10;;;;;;;35.73;28.00;;;23.40;31.00;;;;;;5051540;28;20543;-46
2022/03/25 11:04:37;;;;;;;41.47;28.30;;;23.60;31.10;;;;;;5056710;28;20551;-46
2022/03/25 11:07:04;;;;;;;39.13;28.03;;;23.80;31.10;;;;;;5061109;28;20471;-46
2022/03/25 11:09:31;;;;;;;36.97;28.43;;;23.90;29.00;;;;;;5057644;28;21268;-46
2022/03/25 11:11:59;;;;;;;40.53;27.93;;;23.90;29.50;;;;;;5061946;28;20466;-45
2022/03/25 11:14:27;;;;;;;38.70;28.20;;;23.80;28.70;;;;;;5061182;28;20481;-45
2022/03/25 11:16:58;;;;;;;36.33;27.27;;;23.80;28.90;;;;;;5063005;28;20467;-45
2022/03/25 11:19:26;;;;;;;34.60;25.97;;;23.80;29.60;;;;;;5060436;28;20472;-45
2022/03/25 11:21:57;;;;;;;40.80;29.80;;;23.90;29.60;;;;;;5065218;28;20483;-45
2022/03/25 11:24:36;;;;;;;43.37;30.67;;;24.00;29.30;;;;;;5063283;28;20485;-45
2022/03/25 11:27:19;;;;;;;39.90;29.30;;;24.00;29.40;;;;;;5024977;28;20971;-45
2022/03/25 11:29:50;;;;;;;40.43;29.00;;;24.10;30.50;;;;;;5061318;28;20453;-45
2022/03/25 11:32:17;;;;;;;39.87;28.00;;;24.10;31.00;;;;;;5059791;28;20544;-46
2022/03/25 11:34:54;;;;;;;38.63;28.00;;;24.10;30.80;;;;;;5060667;28;20462;-45
2022/03/25 11:37:25;;;;;;;37.37;28.80;;;24.10;29.90;;;;;;5059873;28;20467;-46
2022/03/25 11:40:14;;;;;;;37.30;27.90;;;24.10;29.80;;;;;;5057727;28;20467;-46
2022/03/25 11:42:46;;;;;;;34.40;29.20;;;24.10;30.60;;;;;;5067642;28;20502;-46
2022/03/25 11:45:22;;;;;;;37.20;27.83;;;24.10;30.50;;;;;;5045777;28;20453;-46
2022/03/25 11:48:09;;;;;;;37.27;26.37;;;24.00;30.00;;;;;;5059925;28;20572;-45
2022/03/25 11:50:36;;;;;;;38.67;27.97;;;23.90;29.90;;;;;;5065537;28;20466;-46
2022/03/25 11:53:11;;;;;;;36.60;27.70;;;23.80;30.60;;;;;;5067359;28;20454;-46
2022/03/25 11:56:07;;;;;;;36.07;27.40;;;23.70;30.50;;;;;;5065029;28;20464;-45
2022/03/25 11:58:55;;;;;;;39.23;28.57;;;23.70;30.40;;;;;;5060814;28;20489;-45
2022/03/25 12:01:23;;;;;;;36.77;27.43;;;23.50;30.10;;;;;;5065589;28;20983;-45
2022/03/25 12:03:53;;;;;;;34.43;26.37;;;23.40;30.70;;;;;;5065010;28;20486;-45
2022/03/25 12:06:50;;;;;;;38.27;28.03;;;23.30;31.20;;;;;;5064905;28;20461;-45
2022/03/25 12:09:20;;;;;;;40.20;28.03;;;23.30;30.80;;;;;;5068527;28;20462;-46
2022/03/25 12:11:52;;;;;;;42.50;26.80;;;23.20;30.40;;;;;;5049202;28;20532;-45
2022/03/25 12:14:20;;;;;;;37.03;27.83;;;23.20;31.00;;;;;;5065428;28;20464;-45
2022/03/25 12:16:47;;;;;;;39.13;28.73;;;23.20;29.80;;;;;;5067395;28;20978;-45
2022/03/25 12:19:26;;;;;;;41.23;30.17;;;23.00;29.80;;;;;;5065601;28;20489;-45
2022/03/25 12:22:04;;;;;;;38.40;27.20;;;22.90;31.30;;;;;;5065527;28;20461;-45
2022/03/25 12:24:34;;;;;;;40.60;29.30;;;22.70;30.20;;;;;;5070936;28;20523;-45
2022/03/25 12:27:05;;;;;;;39.70;30.50;;;22.60;29.70;;;;;;5068285;28;21161;-45
2022/03/25 12:29:34;;;;;;;37.17;29.10;;;22.50;29.90;;;;;;5063881;28;20471;-45
2022/03/25 12:32:13;;;;;;;42.10;27.27;;;22.40;30.20;;;;;;5068134;28;20457;-45
2022/03/25 12:34:54;;;;;;;37.93;27.67;;;22.30;31.00;;;;;;5054137;28;20544;-45
2022/03/25 12:37:51;;;;;;;38.73;27.30;;;22.30;31.00;;;;;;5073123;28;20466;-45
2022/03/25 12:40:23;;;;;;;37.80;27.53;;;22.20;30.40;;;;;;5039934;28;20450;-45
2022/03/25 12:42:58;;;;;;;46.10;29.03;;;22.10;30.90;;;;;;5068847;28;20533;-45
2022/03/25 12:45:33;;;;;;;35.97;27.10;;;22.10;31.60;;;;;;5068615;28;20461;-45
2022/03/25 12:48:10;;;;;;;38.23;28.13;;;22.20;32.80;;;;;;5067343;28;20479;-45